Webcam Flughafen St.Gallen-Altenrhein

Live-Bilder und Zeitraffer LSZR / ACH.

 

Live aus Altenrhein
LIVE
LSZR 082120Z AUTO VRB02KT CAVOK 10/05 Q1023
Zeitraffer heute
2020-04-08 00:14:05
LSZR 072150Z AUTO VRB03KT CAVOK 09/04 Q1026